createdAt,value
2023-02-27T00:00:15.520Z,39.33
2023-02-27T00:03:20.749Z,39.21
2023-02-27T00:06:23.583Z,38.70
2023-02-27T00:09:26.553Z,37.10
2023-02-27T00:12:30.804Z,38.62
2023-02-27T00:15:35.174Z,38.42
2023-02-27T00:18:37.991Z,38.22
2023-02-27T00:21:40.951Z,38.35
2023-02-27T00:24:43.760Z,38.13
2023-02-27T00:27:46.577Z,38.04
2023-02-27T00:30:50.729Z,37.94
2023-02-27T00:33:53.567Z,37.75
2023-02-27T00:36:56.326Z,37.97
2023-02-27T00:39:59.137Z,38.03
2023-02-27T00:43:01.922Z,37.94
2023-02-27T00:46:06.293Z,37.82
2023-02-27T00:49:09.133Z,37.89
2023-02-27T00:52:11.978Z,37.83
2023-02-27T00:55:14.801Z,37.67
2023-02-27T00:58:17.929Z,37.83
2023-02-27T01:01:22.077Z,37.66
2023-02-27T01:04:24.907Z,37.72
2023-02-27T01:07:27.700Z,37.75
2023-02-27T01:10:32.834Z,37.79
2023-02-27T01:13:35.616Z,37.71
2023-02-27T01:16:39.884Z,37.78
2023-02-27T01:19:42.734Z,37.73
2023-02-27T01:22:45.534Z,37.60
2023-02-27T01:25:48.810Z,37.70
2023-02-27T01:28:51.568Z,37.56
2023-02-27T01:31:55.822Z,37.26
2023-02-27T01:34:58.734Z,37.64
2023-02-27T01:38:01.621Z,37.52
2023-02-27T01:41:06.357Z,37.47
2023-02-27T01:44:09.966Z,37.24
2023-02-27T01:47:14.160Z,37.39
2023-02-27T01:50:19.388Z,37.39
2023-02-27T01:53:25.894Z,37.43
2023-02-27T01:56:30.210Z,37.37
2023-02-27T01:59:33.042Z,37.25
2023-02-27T02:02:39.217Z,37.42
2023-02-27T02:05:44.676Z,37.41
2023-02-27T02:08:48.875Z,37.47
2023-02-27T02:11:52.048Z,37.40
2023-02-27T02:14:54.880Z,37.40
2023-02-27T02:18:02.491Z,37.50
2023-02-27T02:21:24.001Z,37.42
2023-02-27T02:24:34.475Z,37.52
2023-02-27T02:27:49.963Z,37.52
2023-02-27T02:31:07.497Z,37.44
2023-02-27T02:34:28.021Z,37.52
2023-02-27T02:37:45.614Z,37.39
2023-02-27T02:40:53.542Z,37.33
2023-02-27T02:44:01.472Z,37.28
2023-02-27T02:47:06.551Z,37.40
2023-02-27T02:50:13.345Z,37.20
2023-02-27T02:53:23.141Z,37.42
2023-02-27T02:56:30.836Z,37.19
2023-02-27T02:59:36.628Z,37.51
2023-02-27T03:02:44.813Z,37.22
2023-02-27T03:05:50.609Z,37.35
2023-02-27T03:08:56.109Z,37.70
2023-02-27T03:12:01.141Z,37.51
2023-02-27T03:15:07.433Z,37.45
2023-02-27T03:18:17.542Z,37.56
2023-02-27T03:21:23.875Z,37.75
2023-02-27T03:24:29.433Z,37.52
2023-02-27T03:27:36.158Z,37.67
2023-02-27T03:30:42.494Z,37.55
2023-02-27T03:33:49.202Z,37.51
2023-02-27T03:36:56.068Z,37.56
2023-02-27T03:40:02.045Z,37.52
2023-02-27T03:43:14.974Z,37.54
2023-02-27T03:46:19.661Z,37.64
2023-02-27T03:49:24.454Z,37.29
2023-02-27T03:52:27.980Z,37.61
2023-02-27T03:55:33.887Z,37.37
2023-02-27T03:58:38.128Z,37.45
2023-02-27T04:01:41.356Z,37.53
2023-02-27T04:04:44.166Z,37.13
2023-02-27T04:07:53.072Z,37.05
2023-02-27T04:11:02.489Z,37.03
2023-02-27T04:14:14.127Z,36.80
2023-02-27T04:17:18.948Z,36.57
2023-02-27T04:20:29.408Z,36.32
2023-02-27T04:23:35.721Z,36.13
2023-02-27T04:26:40.565Z,36.11
2023-02-27T04:29:52.948Z,36.66
2023-02-27T04:32:58.732Z,36.37
2023-02-27T04:36:04.090Z,36.44
2023-02-27T04:39:09.285Z,36.24
2023-02-27T04:42:15.970Z,36.15
2023-02-27T04:45:22.062Z,35.92
2023-02-27T04:48:26.201Z,35.94
2023-02-27T04:51:32.888Z,35.65
2023-02-27T04:54:39.435Z,35.51
2023-02-27T04:57:46.379Z,35.69
2023-02-27T05:00:52.749Z,35.43
2023-02-27T05:03:56.156Z,35.67
2023-02-27T05:07:03.332Z,35.52
2023-02-27T05:10:07.257Z,35.55
2023-02-27T05:13:13.609Z,35.45
2023-02-27T05:16:23.117Z,35.50
2023-02-27T05:19:25.951Z,35.73
2023-02-27T05:22:34.493Z,35.59
2023-02-27T05:25:41.981Z,35.64
2023-02-27T05:28:52.557Z,35.78
2023-02-27T05:32:05.987Z,35.87
2023-02-27T05:35:12.355Z,35.93
2023-02-27T05:38:17.271Z,35.97
2023-02-27T05:41:23.047Z,35.98
2023-02-27T05:44:29.715Z,36.02
2023-02-27T05:47:36.095Z,35.85
2023-02-27T05:50:40.075Z,36.03
2023-02-27T05:53:45.172Z,36.13
2023-02-27T05:56:49.203Z,36.16
2023-02-27T05:59:55.749Z,36.19
2023-02-27T06:03:00.011Z,36.19
2023-02-27T06:06:04.590Z,36.33
2023-02-27T06:09:07.874Z,36.27
2023-02-27T06:12:10.713Z,36.24
2023-02-27T06:15:13.703Z,36.04
2023-02-27T06:18:23.085Z,36.09
2023-02-27T06:21:25.922Z,36.03
2023-02-27T06:24:28.658Z,36.39
2023-02-27T06:27:31.492Z,36.05
2023-02-27T06:30:34.333Z,36.17
2023-02-27T06:33:38.558Z,36.20
2023-02-27T06:36:41.480Z,36.40
2023-02-27T06:39:44.362Z,36.38
2023-02-27T06:42:47.143Z,36.46
2023-02-27T06:45:49.950Z,36.46
2023-02-27T06:48:54.103Z,36.33
2023-02-27T06:51:56.965Z,36.60
2023-02-27T06:54:59.747Z,36.65
2023-02-27T06:58:02.559Z,36.39
2023-02-27T07:01:05.541Z,36.61
2023-02-27T07:04:10.009Z,36.61
2023-02-27T07:07:33.840Z,36.91
2023-02-27T07:10:35.585Z,36.88
2023-02-27T07:13:38.361Z,36.94
2023-02-27T07:16:41.166Z,36.97
2023-02-27T07:19:45.670Z,36.91
2023-02-27T07:22:48.557Z,36.97
2023-02-27T07:25:51.391Z,36.90
2023-02-27T07:28:54.905Z,36.90
2023-02-27T07:31:57.817Z,36.97
2023-02-27T07:35:03.338Z,36.78
2023-02-27T07:38:06.152Z,36.59
2023-02-27T07:41:13.866Z,36.54
2023-02-27T07:44:24.129Z,36.89
2023-02-27T07:47:26.968Z,36.80
2023-02-27T07:50:33.661Z,36.81
2023-02-27T07:53:39.184Z,36.86
2023-02-27T07:56:41.961Z,36.94
2023-02-27T07:59:44.774Z,36.85
2023-02-27T08:02:47.580Z,36.68
2023-02-27T08:05:51.789Z,36.55
2023-02-27T08:08:54.548Z,36.79
2023-02-27T08:11:57.297Z,36.75
2023-02-27T08:15:00.146Z,36.79
2023-02-27T08:18:02.875Z,36.77
2023-02-27T08:21:08.470Z,36.75
2023-02-27T08:24:11.707Z,36.53
2023-02-27T08:27:16.174Z,36.76
2023-02-27T08:30:19.097Z,36.65
2023-02-27T08:33:22.308Z,36.60
2023-02-27T08:36:26.661Z,36.65
2023-02-27T08:39:29.603Z,36.57
2023-02-27T08:42:32.371Z,36.68
2023-02-27T08:45:35.204Z,36.62
2023-02-27T08:48:38.003Z,36.71
2023-02-27T08:51:42.197Z,36.58
2023-02-27T08:54:45.049Z,36.56
2023-02-27T08:57:47.788Z,36.54
2023-02-27T09:00:50.570Z,36.68
2023-02-27T09:03:53.429Z,36.36
2023-02-27T09:06:59.933Z,36.34
2023-02-27T09:10:02.776Z,36.12
2023-02-27T09:13:05.572Z,36.01
2023-02-27T09:16:10.347Z,35.79
2023-02-27T09:19:16.472Z,35.59
2023-02-27T09:22:20.944Z,35.41
2023-02-27T09:25:24.255Z,35.29
2023-02-27T09:28:27.129Z,35.29
2023-02-27T09:31:32.994Z,35.16
2023-02-27T09:34:36.209Z,35.16
2023-02-27T09:37:40.881Z,35.11
2023-02-27T09:40:45.865Z,35.16
2023-02-27T09:43:50.332Z,35.19
2023-02-27T09:46:53.617Z,34.96
2023-02-27T09:50:00.993Z,34.86
2023-02-27T09:53:05.469Z,34.70
2023-02-27T09:56:10.947Z,34.83
2023-02-27T09:59:18.138Z,34.72
2023-02-27T10:02:28.630Z,34.81
2023-02-27T10:05:36.779Z,34.55
2023-02-27T10:08:47.257Z,34.81
2023-02-27T10:11:56.556Z,34.73
2023-02-27T10:15:00.788Z,34.52
2023-02-27T10:18:23.773Z,34.78
2023-02-27T10:21:32.423Z,34.62
2023-02-27T10:24:38.375Z,34.22
2023-02-27T10:27:41.462Z,34.74
2023-02-27T10:30:45.521Z,34.10
2023-02-27T10:33:49.168Z,34.68
2023-02-27T10:36:52.413Z,35.22
2023-02-27T10:39:57.830Z,35.18
2023-02-27T10:43:06.394Z,35.39
2023-02-27T10:46:14.935Z,35.23
2023-02-27T10:49:20.510Z,35.44
2023-02-27T10:52:23.312Z,35.58
2023-02-27T10:55:31.298Z,35.34
2023-02-27T10:58:36.180Z,35.42
2023-02-27T11:01:45.798Z,35.57
2023-02-27T11:04:53.948Z,35.43
2023-02-27T11:08:11.470Z,35.49
2023-02-27T11:11:15.577Z,35.42
2023-02-27T11:14:25.953Z,35.60
2023-02-27T11:17:29.741Z,35.62
2023-02-27T11:20:35.590Z,35.68
2023-02-27T11:23:38.528Z,35.85
2023-02-27T11:26:55.273Z,35.79
2023-02-27T11:29:59.254Z,35.55
2023-02-27T11:33:02.951Z,35.73
2023-02-27T11:36:06.585Z,35.60
2023-02-27T11:39:22.254Z,35.68
2023-02-27T11:42:30.593Z,35.68
2023-02-27T11:46:13.632Z,35.63
2023-02-27T11:49:01.982Z,35.67
2023-02-27T11:52:08.575Z,35.64
2023-02-27T11:55:16.067Z,35.64
2023-02-27T11:58:22.064Z,35.61
2023-02-27T12:01:26.892Z,35.69
2023-02-27T12:04:34.759Z,36.10
2023-02-27T12:07:42.651Z,35.78
2023-02-27T12:10:49.393Z,36.06
2023-02-27T12:13:57.443Z,36.00
2023-02-27T12:17:02.581Z,36.06
2023-02-27T12:20:22.747Z,36.09
2023-02-27T12:23:29.349Z,36.23
2023-02-27T12:26:34.075Z,36.19
2023-02-27T12:29:43.059Z,36.10
2023-02-27T12:32:50.204Z,36.12
2023-02-27T12:35:56.210Z,36.01
2023-02-27T12:38:58.975Z,36.12
2023-02-27T12:42:22.662Z,36.10
2023-02-27T12:45:36.064Z,36.06
2023-02-27T12:48:45.270Z,36.09
2023-02-27T12:51:52.233Z,36.15
2023-02-27T12:55:01.577Z,36.10
2023-02-27T12:58:16.318Z,35.97
2023-02-27T13:01:27.742Z,36.00
2023-02-27T13:04:36.553Z,35.92
2023-02-27T13:07:44.830Z,36.01
2023-02-27T13:10:50.247Z,35.98
2023-02-27T13:13:56.369Z,36.43
2023-02-27T13:17:04.161Z,36.56
2023-02-27T13:20:14.448Z,36.44
2023-02-27T13:23:20.680Z,36.61
2023-02-27T13:26:25.888Z,36.50
2023-02-27T13:29:34.955Z,36.43
2023-02-27T13:32:44.490Z,36.03
2023-02-27T13:35:52.134Z,35.88
2023-02-27T13:38:55.802Z,35.74
2023-02-27T13:41:58.525Z,35.51
2023-02-27T13:45:02.107Z,35.42
2023-02-27T13:48:30.335Z,35.31
2023-02-27T13:51:47.053Z,35.13
2023-02-27T13:54:50.036Z,34.88
2023-02-27T13:57:55.566Z,35.23
2023-02-27T14:01:02.740Z,35.14
2023-02-27T14:04:08.719Z,35.55
2023-02-27T14:07:14.162Z,35.52
2023-02-27T14:10:22.247Z,34.95
2023-02-27T14:13:43.731Z,35.01
2023-02-27T14:16:59.715Z,35.32
2023-02-27T14:20:06.697Z,35.26
2023-02-27T14:23:18.229Z,35.23
2023-02-27T14:26:22.737Z,35.01
2023-02-27T14:29:31.085Z,34.70
2023-02-27T14:32:36.323Z,35.49
2023-02-27T14:35:40.862Z,35.02
2023-02-27T14:38:46.533Z,35.07
2023-02-27T14:41:54.129Z,34.87
2023-02-27T14:44:57.072Z,34.90
2023-02-27T14:48:00.178Z,34.81
2023-02-27T14:51:04.538Z,34.85
2023-02-27T14:54:10.089Z,34.70
2023-02-27T14:57:16.708Z,34.83
2023-02-27T15:00:30.645Z,34.67
2023-02-27T15:03:39.979Z,34.60
2023-02-27T15:06:46.044Z,34.64
2023-02-27T15:09:50.030Z,34.48
2023-02-27T15:12:55.922Z,34.47
2023-02-27T15:16:17.520Z,34.55
2023-02-27T15:19:21.188Z,34.28
2023-02-27T15:22:38.456Z,34.59
2023-02-27T15:25:42.002Z,34.29
2023-02-27T15:28:44.794Z,34.16
2023-02-27T15:31:47.684Z,34.28
2023-02-27T15:34:52.511Z,34.29
2023-02-27T15:37:57.385Z,34.24
2023-02-27T15:41:00.934Z,34.24
2023-02-27T15:44:04.286Z,34.42
2023-02-27T15:47:07.566Z,34.26
2023-02-27T15:50:11.984Z,34.26
2023-02-27T15:53:18.264Z,34.28
2023-02-27T15:56:25.623Z,33.99
2023-02-27T15:59:30.542Z,34.28
2023-02-27T16:02:39.461Z,34.14
2023-02-27T16:05:43.011Z,34.18
2023-02-27T16:08:49.213Z,34.27
2023-02-27T16:12:10.401Z,34.04
2023-02-27T16:15:20.842Z,33.94
2023-02-27T16:18:28.444Z,34.14
2023-02-27T16:21:32.211Z,34.12
2023-02-27T16:24:36.420Z,34.10
2023-02-27T16:27:40.202Z,34.03
2023-02-27T16:30:43.476Z,34.05
2023-02-27T16:33:46.297Z,34.23
2023-02-27T16:36:53.574Z,34.14
2023-02-27T16:39:57.715Z,34.26
2023-02-27T16:43:01.435Z,34.36
2023-02-27T16:46:04.387Z,34.33
2023-02-27T16:49:19.493Z,34.47
2023-02-27T16:52:23.354Z,34.47
2023-02-27T16:55:28.005Z,34.55
2023-02-27T16:58:30.823Z,34.63
2023-02-27T17:01:34.397Z,34.62
2023-02-27T17:04:37.427Z,34.75
2023-02-27T17:07:40.370Z,34.57
2023-02-27T17:10:44.564Z,34.81
2023-02-27T17:13:47.350Z,34.86
2023-02-27T17:16:50.220Z,35.40
2023-02-27T17:19:53.327Z,35.29
2023-02-27T17:22:56.187Z,35.46
2023-02-27T17:26:00.354Z,35.52
2023-02-27T17:29:03.732Z,35.55
2023-02-27T17:32:09.263Z,35.58
2023-02-27T17:35:12.171Z,35.77
2023-02-27T17:38:15.042Z,35.71
2023-02-27T17:41:19.149Z,35.70
2023-02-27T17:44:22.483Z,35.79
2023-02-27T17:47:25.218Z,35.69
2023-02-27T17:50:28.157Z,35.77
2023-02-27T17:53:30.952Z,35.68
2023-02-27T17:56:36.906Z,35.81
2023-02-27T17:59:40.374Z,35.96
2023-02-27T18:02:44.379Z,35.85
2023-02-27T18:05:51.448Z,35.81
2023-02-27T18:08:54.252Z,35.71
2023-02-27T18:11:58.999Z,35.62
2023-02-27T18:15:02.031Z,35.86
2023-02-27T18:18:06.109Z,35.73
2023-02-27T18:21:10.516Z,35.77
2023-02-27T18:24:13.451Z,35.83
2023-02-27T18:27:17.531Z,36.52
2023-02-27T18:30:20.425Z,36.40
2023-02-27T18:33:23.496Z,36.36
2023-02-27T18:36:30.716Z,35.75
2023-02-27T18:39:33.798Z,36.45
2023-02-27T18:42:37.916Z,36.21
2023-02-27T18:45:40.998Z,36.01
2023-02-27T18:48:44.721Z,36.18
2023-02-27T18:51:49.665Z,36.11
2023-02-27T18:54:52.468Z,36.17
2023-02-27T18:57:56.791Z,36.01
2023-02-27T19:00:59.858Z,35.88
2023-02-27T19:04:04.870Z,35.92
2023-02-27T19:07:09.637Z,35.64
2023-02-27T19:10:13.598Z,35.76
2023-02-27T19:13:19.049Z,35.57
2023-02-27T19:16:21.918Z,35.72
2023-02-27T19:19:28.258Z,35.77
2023-02-27T19:22:31.043Z,35.90
2023-02-27T19:25:33.867Z,35.79
2023-02-27T19:28:37.942Z,35.70
2023-02-27T19:31:40.931Z,35.80
2023-02-27T19:34:43.783Z,35.75
2023-02-27T19:37:55.198Z,36.01
2023-02-27T19:41:01.194Z,35.99
2023-02-27T19:44:05.461Z,36.03
2023-02-27T19:47:08.307Z,35.76
2023-02-27T19:50:11.695Z,35.90
2023-02-27T19:53:14.826Z,35.92
2023-02-27T19:56:19.759Z,36.02
2023-02-27T19:59:25.120Z,35.97
2023-02-27T20:02:27.902Z,36.13
2023-02-27T20:05:30.685Z,36.20
2023-02-27T20:08:33.806Z,36.10
2023-02-27T20:11:36.581Z,36.10
2023-02-27T20:14:41.095Z,36.17
2023-02-27T20:17:46.452Z,36.15
2023-02-27T20:20:49.269Z,36.11
2023-02-27T20:23:52.466Z,36.28
2023-02-27T20:26:58.974Z,36.15
2023-02-27T20:30:03.357Z,36.26
2023-02-27T20:33:06.113Z,36.12
2023-02-27T20:36:10.185Z,36.24
2023-02-27T20:39:13.530Z,36.28
2023-02-27T20:42:16.799Z,36.34
2023-02-27T20:45:29.636Z,36.34
2023-02-27T20:48:34.860Z,36.08
2023-02-27T20:51:44.133Z,35.93
2023-02-27T20:54:46.926Z,35.60
2023-02-27T20:57:49.752Z,35.47
2023-02-27T21:00:53.965Z,35.23
2023-02-27T21:03:57.898Z,35.13
2023-02-27T21:07:00.693Z,34.97
2023-02-27T21:10:06.867Z,34.93
2023-02-27T21:13:10.538Z,34.83
2023-02-27T21:16:15.925Z,34.78
2023-02-27T21:19:18.833Z,34.78
2023-02-27T21:22:21.573Z,34.83
2023-02-27T21:25:24.923Z,34.65
2023-02-27T21:28:27.749Z,34.55
2023-02-27T21:31:33.403Z,34.44
2023-02-27T21:34:36.344Z,34.61
2023-02-27T21:37:46.859Z,34.80
2023-02-27T21:40:50.955Z,34.63
2023-02-27T21:43:53.774Z,34.76
2023-02-27T21:46:59.261Z,34.56
2023-02-27T21:50:02.009Z,34.47
2023-02-27T21:53:04.830Z,34.55
2023-02-27T21:56:09.632Z,34.58
2023-02-27T21:59:12.825Z,34.48
2023-02-27T22:02:16.976Z,34.48
2023-02-27T22:05:20.003Z,34.57
2023-02-27T22:08:22.835Z,34.80
2023-02-27T22:11:26.606Z,34.77
2023-02-27T22:14:29.527Z,34.96
2023-02-27T22:17:33.677Z,35.15
2023-02-27T22:20:36.846Z,35.00
2023-02-27T22:23:42.917Z,34.96
2023-02-27T22:26:49.045Z,35.09
2023-02-27T22:29:51.841Z,35.23
2023-02-27T22:32:56.084Z,35.04
2023-02-27T22:36:03.306Z,35.14
2023-02-27T22:39:06.443Z,35.30
2023-02-27T22:42:10.501Z,35.15
2023-02-27T22:45:14.310Z,35.31
2023-02-27T22:48:26.406Z,35.81
2023-02-27T22:51:29.724Z,35.83
2023-02-27T22:54:34.684Z,35.76
2023-02-27T22:57:37.398Z,35.90
2023-02-27T23:00:40.207Z,35.81
2023-02-27T23:03:44.898Z,35.81
2023-02-27T23:06:47.859Z,35.95
2023-02-27T23:09:53.268Z,35.93
2023-02-27T23:12:56.040Z,35.87
2023-02-27T23:15:58.962Z,35.84
2023-02-27T23:19:03.192Z,35.94
2023-02-27T23:22:06.009Z,36.28
2023-02-27T23:25:10.485Z,36.03
2023-02-27T23:28:14.440Z,36.24
2023-02-27T23:31:17.243Z,36.20
2023-02-27T23:34:37.818Z,36.30
2023-02-27T23:37:46.681Z,36.16
2023-02-27T23:40:49.612Z,36.23
2023-02-27T23:44:10.786Z,36.20
2023-02-27T23:47:31.413Z,36.11
2023-02-27T23:50:47.022Z,36.25
2023-02-27T23:53:49.916Z,36.28
2023-02-27T23:56:52.687Z,36.30
2023-02-27T23:59:55.400Z,36.28
